sensor_id;sensor_type;location;lat;lon;timestamp;P1;durP1;ratioP1;P2;durP2;ratioP2
68993;SDS011;56054;50.968;5.816;2022-11-12T00:01:17;14.67;;;7.47;;
68993;SDS011;56054;50.968;5.816;2022-11-12T00:04:43;16.80;;;9.20;;
68993;SDS011;56054;50.968;5.816;2022-11-12T00:08:12;17.30;;;8.87;;
68993;SDS011;56054;50.968;5.816;2022-11-12T00:11:38;15.77;;;8.87;;
68993;SDS011;56054;50.968;5.816;2022-11-12T00:15:04;19.37;;;8.73;;
68993;SDS011;56054;50.968;5.816;2022-11-12T00:18:32;20.63;;;9.43;;
68993;SDS011;56054;50.968;5.816;2022-11-12T00:21:58;18.73;;;10.37;;
68993;SDS011;56054;50.968;5.816;2022-11-12T00:25:24;23.63;;;11.23;;
68993;SDS011;56054;50.968;5.816;2022-11-12T00:28:52;21.17;;;10.47;;
68993;SDS011;56054;50.968;5.816;2022-11-12T00:32:18;20.80;;;10.90;;
68993;SDS011;56054;50.968;5.816;2022-11-12T00:35:45;17.73;;;9.97;;
68993;SDS011;56054;50.968;5.816;2022-11-12T00:39:17;19.80;;;11.00;;
68993;SDS011;56054;50.968;5.816;2022-11-12T00:42:52;18.50;;;9.60;;
68993;SDS011;56054;50.968;5.816;2022-11-12T00:46:25;16.23;;;9.00;;
68993;SDS011;56054;50.968;5.816;2022-11-12T00:49:57;17.27;;;9.53;;
68993;SDS011;56054;50.968;5.816;2022-11-12T00:53:23;15.17;;;8.90;;
68993;SDS011;56054;50.968;5.816;2022-11-12T00:56:52;15.10;;;8.37;;
68993;SDS011;56054;50.968;5.816;2022-11-12T01:00:20;15.47;;;8.40;;
68993;SDS011;56054;50.968;5.816;2022-11-12T01:03:46;16.00;;;8.13;;
68993;SDS011;56054;50.968;5.816;2022-11-12T01:07:12;15.83;;;7.87;;
68993;SDS011;56054;50.968;5.816;2022-11-12T01:10:38;14.37;;;7.80;;
68993;SDS011;56054;50.968;5.816;2022-11-12T01:14:08;16.03;;;8.10;;
68993;SDS011;56054;50.968;5.816;2022-11-12T01:17:34;13.90;;;7.90;;
68993;SDS011;56054;50.968;5.816;2022-11-12T01:21:01;16.20;;;8.17;;
68993;SDS011;56054;50.968;5.816;2022-11-12T01:24:31;18.13;;;8.23;;
68993;SDS011;56054;50.968;5.816;2022-11-12T01:27:57;14.97;;;9.17;;
68993;SDS011;56054;50.968;5.816;2022-11-12T01:31:24;13.43;;;8.40;;
68993;SDS011;56054;50.968;5.816;2022-11-12T01:34:51;17.60;;;8.53;;
68993;SDS011;56054;50.968;5.816;2022-11-12T01:38:16;16.10;;;9.20;;
68993;SDS011;56054;50.968;5.816;2022-11-12T01:41:46;17.77;;;8.43;;
68993;SDS011;56054;50.968;5.816;2022-11-12T01:45:13;14.20;;;8.30;;
68993;SDS011;56054;50.968;5.816;2022-11-12T01:49:03;14.37;;;8.07;;
68993;SDS011;56054;50.968;5.816;2022-11-12T01:52:35;15.43;;;8.57;;
68993;SDS011;56054;50.968;5.816;2022-11-12T01:56:10;15.30;;;8.03;;
68993;SDS011;56054;50.968;5.816;2022-11-12T01:59:39;15.40;;;7.97;;
68993;SDS011;56054;50.968;5.816;2022-11-12T02:03:09;13.07;;;7.53;;
68993;SDS011;56054;50.968;5.816;2022-11-12T02:06:48;13.60;;;7.27;;
68993;SDS011;56054;50.968;5.816;2022-11-12T02:10:15;13.20;;;7.30;;
68993;SDS011;56054;50.968;5.816;2022-11-12T02:13:41;11.50;;;6.83;;
68993;SDS011;56054;50.968;5.816;2022-11-12T02:17:13;13.23;;;7.70;;
68993;SDS011;56054;50.968;5.816;2022-11-12T02:20:39;10.43;;;6.67;;
68993;SDS011;56054;50.968;5.816;2022-11-12T02:24:30;16.97;;;7.23;;
68993;SDS011;56054;50.968;5.816;2022-11-12T02:27:52;16.60;;;7.57;;
68993;SDS011;56054;50.968;5.816;2022-11-12T02:31:23;13.07;;;7.17;;
68993;SDS011;56054;50.968;5.816;2022-11-12T02:34:49;12.27;;;6.70;;
68993;SDS011;56054;50.968;5.816;2022-11-12T02:38:15;15.10;;;6.30;;
68993;SDS011;56054;50.968;5.816;2022-11-12T02:41:41;12.30;;;6.13;;
68993;SDS011;56054;50.968;5.816;2022-11-12T02:45:07;11.03;;;6.33;;
68993;SDS011;56054;50.968;5.816;2022-11-12T02:48:34;10.93;;;6.47;;
68993;SDS011;56054;50.968;5.816;2022-11-12T02:52:00;10.97;;;5.83;;
68993;SDS011;56054;50.968;5.816;2022-11-12T02:55:26;10.40;;;6.17;;
68993;SDS011;56054;50.968;5.816;2022-11-12T02:58:52;14.03;;;6.53;;
68993;SDS011;56054;50.968;5.816;2022-11-12T03:02:18;10.30;;;5.43;;
68993;SDS011;56054;50.968;5.816;2022-11-12T03:05:44;8.77;;;5.10;;
68993;SDS011;56054;50.968;5.816;2022-11-12T03:09:11;10.37;;;5.43;;
68993;SDS011;56054;50.968;5.816;2022-11-12T03:12:36;7.10;;;4.80;;
68993;SDS011;56054;50.968;5.816;2022-11-12T03:16:02;11.57;;;5.63;;
68993;SDS011;56054;50.968;5.816;2022-11-12T03:19:28;8.93;;;5.07;;
68993;SDS011;56054;50.968;5.816;2022-11-12T03:22:58;10.27;;;5.27;;
68993;SDS011;56054;50.968;5.816;2022-11-12T03:26:31;11.23;;;5.13;;
68993;SDS011;56054;50.968;5.816;2022-11-12T03:29:57;12.13;;;5.40;;
68993;SDS011;56054;50.968;5.816;2022-11-12T03:33:23;9.83;;;5.47;;
68993;SDS011;56054;50.968;5.816;2022-11-12T03:36:48;9.27;;;5.07;;
68993;SDS011;56054;50.968;5.816;2022-11-12T03:40:16;11.77;;;4.93;;
68993;SDS011;56054;50.968;5.816;2022-11-12T03:43:42;7.37;;;4.70;;
68993;SDS011;56054;50.968;5.816;2022-11-12T03:47:08;10.40;;;5.60;;
68993;SDS011;56054;50.968;5.816;2022-11-12T03:50:34;10.77;;;5.47;;
68993;SDS011;56054;50.968;5.816;2022-11-12T03:54:01;14.37;;;5.50;;
68993;SDS011;56054;50.968;5.816;2022-11-12T03:57:27;8.90;;;5.13;;
68993;SDS011;56054;50.968;5.816;2022-11-12T04:00:53;11.10;;;4.63;;
68993;SDS011;56054;50.968;5.816;2022-11-12T04:04:18;8.40;;;5.30;;
68993;SDS011;56054;50.968;5.816;2022-11-12T04:07:47;11.53;;;4.77;;
68993;SDS011;56054;50.968;5.816;2022-11-12T04:11:14;10.27;;;4.87;;
68993;SDS011;56054;50.968;5.816;2022-11-12T04:17:59;9.13;;;5.30;;
68993;SDS011;56054;50.968;5.816;2022-11-12T04:21:25;10.03;;;4.70;;
68993;SDS011;56054;50.968;5.816;2022-11-12T04:28:50;7.97;;;4.57;;
68993;SDS011;56054;50.968;5.816;2022-11-12T04:32:16;8.70;;;4.50;;
68993;SDS011;56054;50.968;5.816;2022-11-12T04:35:42;8.87;;;4.90;;
68993;SDS011;56054;50.968;5.816;2022-11-12T04:39:13;8.17;;;4.90;;
68993;SDS011;56054;50.968;5.816;2022-11-12T04:42:41;8.27;;;4.27;;
68993;SDS011;56054;50.968;5.816;2022-11-12T04:46:11;7.90;;;4.70;;
68993;SDS011;56054;50.968;5.816;2022-11-12T04:49:37;8.93;;;4.73;;
68993;SDS011;56054;50.968;5.816;2022-11-12T04:53:03;8.33;;;4.57;;
68993;SDS011;56054;50.968;5.816;2022-11-12T04:56:32;17.77;;;8.90;;
68993;SDS011;56054;50.968;5.816;2022-11-12T05:00:08;12.10;;;4.93;;
68993;SDS011;56054;50.968;5.816;2022-11-12T05:03:37;8.20;;;4.73;;
68993;SDS011;56054;50.968;5.816;2022-11-12T05:07:03;8.97;;;5.03;;
68993;SDS011;56054;50.968;5.816;2022-11-12T05:10:32;6.90;;;4.37;;
68993;SDS011;56054;50.968;5.816;2022-11-12T05:14:08;8.17;;;4.53;;
68993;SDS011;56054;50.968;5.816;2022-11-12T05:17:33;8.53;;;4.80;;
68993;SDS011;56054;50.968;5.816;2022-11-12T05:21:02;7.40;;;3.93;;
68993;SDS011;56054;50.968;5.816;2022-11-12T05:24:39;8.97;;;4.80;;
68993;SDS011;56054;50.968;5.816;2022-11-12T05:28:32;8.57;;;4.93;;
68993;SDS011;56054;50.968;5.816;2022-11-12T05:32:07;7.77;;;4.70;;
68993;SDS011;56054;50.968;5.816;2022-11-12T05:35:41;8.43;;;4.50;;
68993;SDS011;56054;50.968;5.816;2022-11-12T05:39:11;8.10;;;3.97;;
68993;SDS011;56054;50.968;5.816;2022-11-12T05:42:37;8.87;;;4.90;;
68993;SDS011;56054;50.968;5.816;2022-11-12T05:46:07;6.23;;;4.00;;
68993;SDS011;56054;50.968;5.816;2022-11-12T05:49:39;7.03;;;4.30;;
68993;SDS011;56054;50.968;5.816;2022-11-12T05:53:06;8.60;;;4.30;;
68993;SDS011;56054;50.968;5.816;2022-11-12T05:56:32;9.10;;;4.40;;
68993;SDS011;56054;50.968;5.816;2022-11-12T05:59:58;8.87;;;5.17;;
68993;SDS011;56054;50.968;5.816;2022-11-12T06:03:33;9.00;;;5.07;;
68993;SDS011;56054;50.968;5.816;2022-11-12T06:06:59;8.63;;;4.63;;
68993;SDS011;56054;50.968;5.816;2022-11-12T06:10:26;9.90;;;4.63;;
68993;SDS011;56054;50.968;5.816;2022-11-12T06:13:52;8.30;;;4.37;;
68993;SDS011;56054;50.968;5.816;2022-11-12T06:17:18;8.23;;;4.47;;
68993;SDS011;56054;50.968;5.816;2022-11-12T06:20:44;9.50;;;5.03;;
68993;SDS011;56054;50.968;5.816;2022-11-12T06:24:14;8.10;;;3.90;;
68993;SDS011;56054;50.968;5.816;2022-11-12T06:27:45;6.67;;;4.10;;
68993;SDS011;56054;50.968;5.816;2022-11-12T06:31:17;11.57;;;5.40;;
68993;SDS011;56054;50.968;5.816;2022-11-12T06:34:43;8.93;;;4.60;;
68993;SDS011;56054;50.968;5.816;2022-11-12T06:38:09;8.00;;;4.30;;
68993;SDS011;56054;50.968;5.816;2022-11-12T06:41:42;5.83;;;4.40;;
68993;SDS011;56054;50.968;5.816;2022-11-12T06:45:12;11.67;;;5.50;;
68993;SDS011;56054;50.968;5.816;2022-11-12T06:48:38;6.00;;;4.10;;
68993;SDS011;56054;50.968;5.816;2022-11-12T06:52:17;9.77;;;4.50;;
68993;SDS011;56054;50.968;5.816;2022-11-12T06:55:42;6.97;;;4.27;;
68993;SDS011;56054;50.968;5.816;2022-11-12T06:59:08;6.90;;;4.57;;
68993;SDS011;56054;50.968;5.816;2022-11-12T07:02:35;10.90;;;4.57;;
68993;SDS011;56054;50.968;5.816;2022-11-12T07:06:03;7.50;;;3.97;;
68993;SDS011;56054;50.968;5.816;2022-11-12T07:09:46;8.23;;;4.57;;
68993;SDS011;56054;50.968;5.816;2022-11-12T07:13:12;13.90;;;9.20;;
68993;SDS011;56054;50.968;5.816;2022-11-12T07:16:44;8.13;;;6.00;;
68993;SDS011;56054;50.968;5.816;2022-11-12T07:20:13;10.10;;;5.80;;
68993;SDS011;56054;50.968;5.816;2022-11-12T07:23:44;12.57;;;5.57;;
68993;SDS011;56054;50.968;5.816;2022-11-12T07:27:11;9.20;;;4.73;;
68993;SDS011;56054;50.968;5.816;2022-11-12T07:30:45;9.00;;;5.03;;
68993;SDS011;56054;50.968;5.816;2022-11-12T07:34:13;8.87;;;5.23;;
68993;SDS011;56054;50.968;5.816;2022-11-12T07:37:39;9.33;;;5.40;;
68993;SDS011;56054;50.968;5.816;2022-11-12T07:41:14;9.00;;;5.00;;
68993;SDS011;56054;50.968;5.816;2022-11-12T07:44:40;7.30;;;4.93;;
68993;SDS011;56054;50.968;5.816;2022-11-12T07:48:12;6.97;;;5.07;;
68993;SDS011;56054;50.968;5.816;2022-11-12T07:51:39;9.30;;;5.63;;
68993;SDS011;56054;50.968;5.816;2022-11-12T07:55:04;7.93;;;4.47;;
68993;SDS011;56054;50.968;5.816;2022-11-12T07:58:32;8.53;;;5.30;;
68993;SDS011;56054;50.968;5.816;2022-11-12T08:02:03;13.83;;;5.10;;
68993;SDS011;56054;50.968;5.816;2022-11-12T08:05:32;5.90;;;3.87;;
68993;SDS011;56054;50.968;5.816;2022-11-12T08:09:04;10.43;;;4.10;;
68993;SDS011;56054;50.968;5.816;2022-11-12T08:12:38;6.10;;;3.83;;
68993;SDS011;56054;50.968;5.816;2022-11-12T08:16:04;10.37;;;4.03;;
68993;SDS011;56054;50.968;5.816;2022-11-12T08:19:37;7.97;;;4.73;;
68993;SDS011;56054;50.968;5.816;2022-11-12T08:23:03;12.50;;;5.40;;
68993;SDS011;56054;50.968;5.816;2022-11-12T08:26:29;6.47;;;4.30;;
68993;SDS011;56054;50.968;5.816;2022-11-12T08:30:03;5.90;;;3.77;;
68993;SDS011;56054;50.968;5.816;2022-11-12T08:33:29;6.27;;;3.90;;
68993;SDS011;56054;50.968;5.816;2022-11-12T08:37:00;7.40;;;4.17;;
68993;SDS011;56054;50.968;5.816;2022-11-12T08:40:28;6.37;;;4.77;;
68993;SDS011;56054;50.968;5.816;2022-11-12T08:43:58;6.83;;;3.70;;
68993;SDS011;56054;50.968;5.816;2022-11-12T08:47:24;6.50;;;4.20;;
68993;SDS011;56054;50.968;5.816;2022-11-12T08:50:51;10.63;;;3.80;;
68993;SDS011;56054;50.968;5.816;2022-11-12T08:54:23;8.50;;;4.17;;
68993;SDS011;56054;50.968;5.816;2022-11-12T08:57:57;7.83;;;4.47;;
68993;SDS011;56054;50.968;5.816;2022-11-12T09:01:28;10.77;;;4.77;;
68993;SDS011;56054;50.968;5.816;2022-11-12T09:05:08;10.17;;;5.67;;
68993;SDS011;56054;50.968;5.816;2022-11-12T09:12:37;11.57;;;6.13;;
68993;SDS011;56054;50.968;5.816;2022-11-12T09:16:04;8.33;;;5.60;;
68993;SDS011;56054;50.968;5.816;2022-11-12T09:19:35;9.33;;;5.90;;
68993;SDS011;56054;50.968;5.816;2022-11-12T09:23:17;11.07;;;5.30;;
68993;SDS011;56054;50.968;5.816;2022-11-12T09:26:52;8.37;;;4.53;;
68993;SDS011;56054;50.968;5.816;2022-11-12T09:30:26;8.63;;;5.23;;
68993;SDS011;56054;50.968;5.816;2022-11-12T09:33:51;7.33;;;4.00;;
68993;SDS011;56054;50.968;5.816;2022-11-12T09:37:21;7.77;;;4.17;;
68993;SDS011;56054;50.968;5.816;2022-11-12T09:44:33;12.47;;;4.20;;
68993;SDS011;56054;50.968;5.816;2022-11-12T09:48:02;7.40;;;3.70;;
68993;SDS011;56054;50.968;5.816;2022-11-12T09:51:35;9.60;;;6.23;;
68993;SDS011;56054;50.968;5.816;2022-11-12T09:59:20;12.57;;;7.80;;
68993;SDS011;56054;50.968;5.816;2022-11-12T10:02:51;15.37;;;7.17;;
68993;SDS011;56054;50.968;5.816;2022-11-12T10:07:15;14.13;;;7.20;;
68993;SDS011;56054;50.968;5.816;2022-11-12T10:10:52;9.30;;;6.70;;
68993;SDS011;56054;50.968;5.816;2022-11-12T10:14:58;9.03;;;6.17;;
68993;SDS011;56054;50.968;5.816;2022-11-12T10:35:07;10.87;;;6.20;;
68993;SDS011;56054;50.968;5.816;2022-11-12T10:38:40;11.57;;;6.83;;
68993;SDS011;56054;50.968;5.816;2022-11-12T10:42:17;11.83;;;7.10;;
68993;SDS011;56054;50.968;5.816;2022-11-12T10:45:52;13.23;;;7.17;;
68993;SDS011;56054;50.968;5.816;2022-11-12T10:50:03;12.57;;;6.50;;
68993;SDS011;56054;50.968;5.816;2022-11-12T10:53:40;10.87;;;6.17;;
68993;SDS011;56054;50.968;5.816;2022-11-12T10:57:23;13.37;;;6.27;;
68993;SDS011;56054;50.968;5.816;2022-11-12T11:01:11;12.30;;;6.13;;
68993;SDS011;56054;50.968;5.816;2022-11-12T11:04:48;11.97;;;5.70;;
68993;SDS011;56054;50.968;5.816;2022-11-12T11:12:30;11.23;;;6.17;;
68993;SDS011;56054;50.968;5.816;2022-11-12T11:16:04;8.50;;;5.57;;
68993;SDS011;56054;50.968;5.816;2022-11-12T11:19:33;9.10;;;5.67;;
68993;SDS011;56054;50.968;5.816;2022-11-12T11:23:20;16.07;;;6.20;;
68993;SDS011;56054;50.968;5.816;2022-11-12T11:31:17;9.70;;;5.90;;
68993;SDS011;56054;50.968;5.816;2022-11-12T11:35:04;9.90;;;5.53;;
68993;SDS011;56054;50.968;5.816;2022-11-12T11:58:23;8.67;;;4.97;;
68993;SDS011;56054;50.968;5.816;2022-11-12T12:01:53;8.60;;;4.87;;
68993;SDS011;56054;50.968;5.816;2022-11-12T12:05:50;13.07;;;6.73;;
68993;SDS011;56054;50.968;5.816;2022-11-12T12:09:37;11.17;;;5.33;;
68993;SDS011;56054;50.968;5.816;2022-11-12T12:13:24;8.73;;;4.97;;
68993;SDS011;56054;50.968;5.816;2022-11-12T12:21:08;11.50;;;4.53;;
68993;SDS011;56054;50.968;5.816;2022-11-12T12:24:56;8.10;;;5.47;;
68993;SDS011;56054;50.968;5.816;2022-11-12T12:28:42;8.90;;;4.53;;
68993;SDS011;56054;50.968;5.816;2022-11-12T12:32:35;8.33;;;5.27;;
68993;SDS011;56054;50.968;5.816;2022-11-12T12:36:11;8.60;;;4.60;;
68993;SDS011;56054;50.968;5.816;2022-11-12T12:43:34;7.93;;;4.03;;
68993;SDS011;56054;50.968;5.816;2022-11-12T12:47:06;8.63;;;3.50;;
68993;SDS011;56054;50.968;5.816;2022-11-12T12:50:45;8.18;;;4.32;;
68993;SDS011;56054;50.968;5.816;2022-11-12T12:58:03;9.93;;;4.10;;
68993;SDS011;56054;50.968;5.816;2022-11-12T13:01:40;7.53;;;3.35;;
68993;SDS011;56054;50.968;5.816;2022-11-12T13:05:05;6.82;;;3.30;;
68993;SDS011;56054;50.968;5.816;2022-11-12T13:08:55;7.78;;;3.55;;
68993;SDS011;56054;50.968;5.816;2022-11-12T13:13:19;6.90;;;3.22;;
68993;SDS011;56054;50.968;5.816;2022-11-12T13:21:17;11.52;;;3.47;;
68993;SDS011;56054;50.968;5.816;2022-11-12T13:33:03;8.70;;;3.00;;
68993;SDS011;56054;50.968;5.816;2022-11-12T13:37:03;6.15;;;2.30;;
68993;SDS011;56054;50.968;5.816;2022-11-12T13:44:33;4.63;;;2.60;;
68993;SDS011;56054;50.968;5.816;2022-11-12T13:48:14;7.78;;;2.25;;
68993;SDS011;56054;50.968;5.816;2022-11-12T13:51:59;3.35;;;2.42;;
68993;SDS011;56054;50.968;5.816;2022-11-12T13:55:25;9.30;;;3.25;;
68993;SDS011;56054;50.968;5.816;2022-11-12T13:58:52;4.78;;;3.03;;
68993;SDS011;56054;50.968;5.816;2022-11-12T14:06:14;3.97;;;2.42;;
68993;SDS011;56054;50.968;5.816;2022-11-12T14:10:08;5.43;;;3.20;;
68993;SDS011;56054;50.968;5.816;2022-11-12T14:25:33;7.97;;;4.57;;
68993;SDS011;56054;50.968;5.816;2022-11-12T14:29:16;6.85;;;2.70;;
68993;SDS011;56054;50.968;5.816;2022-11-12T14:33:06;7.22;;;3.22;;
68993;SDS011;56054;50.968;5.816;2022-11-12T14:36:42;8.77;;;3.38;;
68993;SDS011;56054;50.968;5.816;2022-11-12T14:40:35;11.73;;;2.72;;
68993;SDS011;56054;50.968;5.816;2022-11-12T14:44:18;6.90;;;2.72;;
68993;SDS011;56054;50.968;5.816;2022-11-12T14:47:53;8.15;;;2.75;;
68993;SDS011;56054;50.968;5.816;2022-11-12T14:55:25;9.63;;;2.95;;
68993;SDS011;56054;50.968;5.816;2022-11-12T14:58:58;8.15;;;3.22;;
68993;SDS011;56054;50.968;5.816;2022-11-12T15:02:25;11.30;;;3.00;;
68993;SDS011;56054;50.968;5.816;2022-11-12T15:09:53;10.05;;;2.78;;
68993;SDS011;56054;50.968;5.816;2022-11-12T15:13:20;7.28;;;3.72;;
68993;SDS011;56054;50.968;5.816;2022-11-12T15:17:21;12.10;;;5.68;;
68993;SDS011;56054;50.968;5.816;2022-11-12T15:33:20;47.60;;;25.13;;
68993;SDS011;56054;50.968;5.816;2022-11-12T15:37:10;13.38;;;4.70;;
68993;SDS011;56054;50.968;5.816;2022-11-12T15:41:02;12.30;;;3.65;;
68993;SDS011;56054;50.968;5.816;2022-11-12T15:44:33;8.43;;;3.45;;
68993;SDS011;56054;50.968;5.816;2022-11-12T15:48:17;5.97;;;3.92;;
68993;SDS011;56054;50.968;5.816;2022-11-12T15:51:49;8.27;;;3.67;;
68993;SDS011;56054;50.968;5.816;2022-11-12T15:55:17;7.30;;;4.05;;
68993;SDS011;56054;50.968;5.816;2022-11-12T15:59:02;10.07;;;4.57;;
68993;SDS011;56054;50.968;5.816;2022-11-12T16:02:29;8.65;;;3.88;;
68993;SDS011;56054;50.968;5.816;2022-11-12T16:06:09;5.63;;;3.63;;
68993;SDS011;56054;50.968;5.816;2022-11-12T16:09:42;9.75;;;4.25;;
68993;SDS011;56054;50.968;5.816;2022-11-12T16:17:03;11.93;;;5.63;;
68993;SDS011;56054;50.968;5.816;2022-11-12T16:20:30;9.98;;;4.53;;
68993;SDS011;56054;50.968;5.816;2022-11-12T16:24:00;13.93;;;5.57;;
68993;SDS011;56054;50.968;5.816;2022-11-12T16:27:25;12.55;;;5.13;;
68993;SDS011;56054;50.968;5.816;2022-11-12T16:39:02;9.80;;;5.40;;
68993;SDS011;56054;50.968;5.816;2022-11-12T16:42:27;8.73;;;4.95;;
68993;SDS011;56054;50.968;5.816;2022-11-12T16:50:14;12.00;;;4.93;;
68993;SDS011;56054;50.968;5.816;2022-11-12T16:53:49;12.77;;;5.53;;
68993;SDS011;56054;50.968;5.816;2022-11-12T16:57:17;11.97;;;6.83;;
68993;SDS011;56054;50.968;5.816;2022-11-12T17:00:44;15.20;;;6.53;;
68993;SDS011;56054;50.968;5.816;2022-11-12T17:04:28;13.93;;;6.07;;
68993;SDS011;56054;50.968;5.816;2022-11-12T17:08:02;8.47;;;5.80;;
68993;SDS011;56054;50.968;5.816;2022-11-12T17:11:33;11.70;;;5.97;;
68993;SDS011;56054;50.968;5.816;2022-11-12T17:14:59;11.20;;;5.37;;
68993;SDS011;56054;50.968;5.816;2022-11-12T17:18:26;9.30;;;5.20;;
68993;SDS011;56054;50.968;5.816;2022-11-12T17:22:00;14.07;;;6.17;;
68993;SDS011;56054;50.968;5.816;2022-11-12T17:25:26;12.37;;;5.40;;
68993;SDS011;56054;50.968;5.816;2022-11-12T17:29:02;9.80;;;5.60;;
68993;SDS011;56054;50.968;5.816;2022-11-12T17:47:23;13.23;;;5.93;;
68993;SDS011;56054;50.968;5.816;2022-11-12T17:51:01;9.87;;;5.53;;
68993;SDS011;56054;50.968;5.816;2022-11-12T17:54:35;11.67;;;6.03;;
68993;SDS011;56054;50.968;5.816;2022-11-12T17:58:02;8.63;;;5.00;;
68993;SDS011;56054;50.968;5.816;2022-11-12T18:01:30;10.23;;;5.27;;
68993;SDS011;56054;50.968;5.816;2022-11-12T18:05:08;7.00;;;4.53;;
68993;SDS011;56054;50.968;5.816;2022-11-12T18:08:43;9.63;;;4.77;;
68993;SDS011;56054;50.968;5.816;2022-11-12T18:12:13;17.13;;;9.10;;
68993;SDS011;56054;50.968;5.816;2022-11-12T18:15:53;15.77;;;8.93;;
68993;SDS011;56054;50.968;5.816;2022-11-12T18:19:28;15.83;;;9.73;;
68993;SDS011;56054;50.968;5.816;2022-11-12T18:22:59;15.37;;;9.13;;
68993;SDS011;56054;50.968;5.816;2022-11-12T18:31:03;12.43;;;7.33;;
68993;SDS011;56054;50.968;5.816;2022-11-12T18:35:06;14.47;;;8.23;;
68993;SDS011;56054;50.968;5.816;2022-11-12T18:42:28;10.60;;;5.97;;
68993;SDS011;56054;50.968;5.816;2022-11-12T18:46:09;12.60;;;5.90;;
68993;SDS011;56054;50.968;5.816;2022-11-12T18:49:54;12.50;;;5.77;;
68993;SDS011;56054;50.968;5.816;2022-11-12T18:53:23;11.43;;;5.53;;
68993;SDS011;56054;50.968;5.816;2022-11-12T18:56:58;8.33;;;5.27;;
68993;SDS011;56054;50.968;5.816;2022-11-12T19:00:29;10.27;;;5.23;;
68993;SDS011;56054;50.968;5.816;2022-11-12T19:03:55;9.77;;;5.50;;
68993;SDS011;56054;50.968;5.816;2022-11-12T19:07:39;9.53;;;5.93;;
68993;SDS011;56054;50.968;5.816;2022-11-12T19:11:14;15.03;;;7.83;;
68993;SDS011;56054;50.968;5.816;2022-11-12T19:14:46;13.93;;;6.40;;
68993;SDS011;56054;50.968;5.816;2022-11-12T19:18:12;12.10;;;6.17;;
68993;SDS011;56054;50.968;5.816;2022-11-12T19:21:44;12.40;;;6.40;;
68993;SDS011;56054;50.968;5.816;2022-11-12T19:25:17;12.53;;;6.70;;
68993;SDS011;56054;50.968;5.816;2022-11-12T19:28:50;11.63;;;6.60;;
68993;SDS011;56054;50.968;5.816;2022-11-12T19:32:23;36.47;;;21.43;;
68993;SDS011;56054;50.968;5.816;2022-11-12T19:35:56;17.10;;;9.40;;
68993;SDS011;56054;50.968;5.816;2022-11-12T19:39:27;13.27;;;8.53;;
68993;SDS011;56054;50.968;5.816;2022-11-12T19:42:58;12.40;;;7.40;;
68993;SDS011;56054;50.968;5.816;2022-11-12T19:46:23;11.57;;;6.37;;
68993;SDS011;56054;50.968;5.816;2022-11-12T19:49:50;10.43;;;5.93;;
68993;SDS011;56054;50.968;5.816;2022-11-12T19:53:30;15.20;;;7.00;;
68993;SDS011;56054;50.968;5.816;2022-11-12T19:56:57;10.47;;;6.60;;
68993;SDS011;56054;50.968;5.816;2022-11-12T20:04:49;13.33;;;7.70;;
68993;SDS011;56054;50.968;5.816;2022-11-12T20:08:23;13.30;;;7.73;;
68993;SDS011;56054;50.968;5.816;2022-11-12T20:11:49;14.17;;;8.23;;
68993;SDS011;56054;50.968;5.816;2022-11-12T20:15:19;17.23;;;8.67;;
68993;SDS011;56054;50.968;5.816;2022-11-12T20:18:53;13.37;;;8.40;;
68993;SDS011;56054;50.968;5.816;2022-11-12T20:22:29;23.10;;;13.23;;
68993;SDS011;56054;50.968;5.816;2022-11-12T20:25:59;19.10;;;9.70;;
68993;SDS011;56054;50.968;5.816;2022-11-12T20:29:32;24.73;;;14.77;;
68993;SDS011;56054;50.968;5.816;2022-11-12T20:33:04;17.03;;;8.93;;
68993;SDS011;56054;50.968;5.816;2022-11-12T20:36:30;16.37;;;10.03;;
68993;SDS011;56054;50.968;5.816;2022-11-12T20:39:57;13.40;;;7.77;;
68993;SDS011;56054;50.968;5.816;2022-11-12T20:43:35;11.60;;;7.13;;
68993;SDS011;56054;50.968;5.816;2022-11-12T20:47:09;24.50;;;12.07;;
68993;SDS011;56054;50.968;5.816;2022-11-12T20:50:38;22.03;;;11.43;;
68993;SDS011;56054;50.968;5.816;2022-11-12T20:54:09;15.33;;;10.10;;
68993;SDS011;56054;50.968;5.816;2022-11-12T20:57:54;17.37;;;10.13;;
68993;SDS011;56054;50.968;5.816;2022-11-12T21:01:28;16.50;;;9.00;;
68993;SDS011;56054;50.968;5.816;2022-11-12T21:05:01;14.80;;;9.30;;
68993;SDS011;56054;50.968;5.816;2022-11-12T21:08:30;20.73;;;9.10;;
68993;SDS011;56054;50.968;5.816;2022-11-12T21:11:57;15.37;;;8.03;;
68993;SDS011;56054;50.968;5.816;2022-11-12T21:15:28;13.50;;;8.30;;
68993;SDS011;56054;50.968;5.816;2022-11-12T21:19:03;13.03;;;7.93;;
68993;SDS011;56054;50.968;5.816;2022-11-12T21:22:30;17.13;;;9.17;;
68993;SDS011;56054;50.968;5.816;2022-11-12T21:26:02;15.77;;;8.97;;
68993;SDS011;56054;50.968;5.816;2022-11-12T21:33:31;12.83;;;7.83;;
68993;SDS011;56054;50.968;5.816;2022-11-12T21:36:57;16.03;;;8.93;;
68993;SDS011;56054;50.968;5.816;2022-11-12T21:48:13;19.40;;;8.00;;
68993;SDS011;56054;50.968;5.816;2022-11-12T21:51:45;15.40;;;9.47;;
68993;SDS011;56054;50.968;5.816;2022-11-12T21:59:18;14.97;;;8.53;;
68993;SDS011;56054;50.968;5.816;2022-11-12T22:02:49;18.93;;;12.10;;
68993;SDS011;56054;50.968;5.816;2022-11-12T22:14:02;31.13;;;13.97;;
68993;SDS011;56054;50.968;5.816;2022-11-12T22:17:32;29.27;;;14.27;;
68993;SDS011;56054;50.968;5.816;2022-11-12T22:20:59;25.40;;;13.47;;
68993;SDS011;56054;50.968;5.816;2022-11-12T22:24:28;25.17;;;14.43;;
68993;SDS011;56054;50.968;5.816;2022-11-12T22:31:49;28.37;;;15.53;;
68993;SDS011;56054;50.968;5.816;2022-11-12T22:35:24;26.50;;;13.70;;
68993;SDS011;56054;50.968;5.816;2022-11-12T22:38:58;28.03;;;14.00;;
68993;SDS011;56054;50.968;5.816;2022-11-12T22:42:24;25.53;;;13.43;;
68993;SDS011;56054;50.968;5.816;2022-11-12T22:46:06;24.60;;;13.17;;
68993;SDS011;56054;50.968;5.816;2022-11-12T22:49:34;24.93;;;12.47;;
68993;SDS011;56054;50.968;5.816;2022-11-12T22:53:13;25.20;;;12.60;;
68993;SDS011;56054;50.968;5.816;2022-11-12T22:56:44;24.50;;;12.93;;
68993;SDS011;56054;50.968;5.816;2022-11-12T23:00:19;25.37;;;13.07;;
68993;SDS011;56054;50.968;5.816;2022-11-12T23:04:22;23.57;;;12.30;;
68993;SDS011;56054;50.968;5.816;2022-11-12T23:07:58;22.27;;;12.27;;
68993;SDS011;56054;50.968;5.816;2022-11-12T23:11:28;19.37;;;11.47;;
68993;SDS011;56054;50.968;5.816;2022-11-12T23:19:08;18.90;;;10.60;;
68993;SDS011;56054;50.968;5.816;2022-11-12T23:22:45;18.13;;;9.90;;
68993;SDS011;56054;50.968;5.816;2022-11-12T23:30:28;16.23;;;9.43;;
68993;SDS011;56054;50.968;5.816;2022-11-12T23:33:59;17.63;;;9.87;;
68993;SDS011;56054;50.968;5.816;2022-11-12T23:37:27;18.23;;;9.60;;
68993;SDS011;56054;50.968;5.816;2022-11-12T23:52:23;17.37;;;9.80;;
68993;SDS011;56054;50.968;5.816;2022-11-12T23:55:54;18.07;;;9.90;;
68993;SDS011;56054;50.968;5.816;2022-11-12T23:59:26;16.83;;;9.60;;
